Plum Creek, South Dakota
Current Conditions -  °F | °C
As of 3:55 PM on Wednesday 26 Nov 2014 (Local Time) from KPHP Reporting Station
Clear Clear  
Wind Chill: 24°   Ceiling: Unl
Heat Index: 29°   Visibility: 10mi
Dew Point: 20°   Wind: 5mph
Humidity: 69%   Direction: 220°SW
Pressure: 30.31"   Gusts: NA
Location:  44.1288°N, 101.804°W
Report Text: KPHP 262255Z AUTO 22004KT 10SM CLR M02/M07 A3031 RMK AO2 SLP287 T10171067
Loading
Personal Weather Stations






























Interactive Weather Map New forecast layout! Learn more

10-Day Weather Forecast

Advertisements
Track Severe Weather on mobile